createdAt,value
2018-04-19T00:01:48.527Z,15.68
2018-04-19T00:04:19.478Z,17.55
2018-04-19T00:06:50.431Z,15.98
2018-04-19T00:09:21.465Z,16.45
2018-04-19T00:11:52.497Z,16.58
2018-04-19T00:14:23.595Z,18.48
2018-04-19T00:16:54.632Z,18.58
2018-04-19T00:19:25.615Z,19.42
2018-04-19T00:21:56.346Z,20.50
2018-04-19T00:24:27.478Z,19.75
2018-04-19T00:26:58.405Z,21.20
2018-04-19T00:29:28.234Z,21.80
2018-04-19T00:31:59.293Z,21.25
2018-04-19T00:34:30.398Z,21.17
2018-04-19T00:37:01.366Z,23.45
2018-04-19T00:39:34.607Z,21.80
2018-04-19T00:42:03.654Z,22.90
2018-04-19T00:44:34.431Z,22.48
2018-04-19T00:47:05.350Z,20.48
2018-04-19T00:49:36.418Z,19.52
2018-04-19T00:52:06.928Z,21.52
2018-04-19T00:54:37.682Z,21.18
2018-04-19T00:57:08.430Z,22.92
2018-04-19T00:59:39.370Z,22.48
2018-04-19T01:02:10.406Z,23.25
2018-04-19T01:04:41.442Z,22.52
2018-04-19T01:07:12.278Z,23.05
2018-04-19T01:09:43.314Z,21.10
2018-04-19T01:12:14.388Z,20.92
2018-04-19T01:14:45.373Z,20.35
2018-04-19T01:17:16.379Z,18.58
2018-04-19T01:19:47.435Z,19.00
2018-04-19T01:22:18.454Z,19.00
2018-04-19T01:24:49.270Z,18.05
2018-04-19T01:27:20.366Z,17.60
2018-04-19T01:29:51.467Z,17.40
2018-04-19T01:32:22.331Z,17.83
2018-04-19T01:34:53.394Z,18.00
2018-04-19T01:37:24.446Z,19.12
2018-04-19T01:39:55.385Z,19.12
2018-04-19T01:42:27.027Z,20.15
2018-04-19T01:44:57.784Z,19.42
2018-04-19T01:47:28.406Z,17.37
2018-04-19T01:49:59.514Z,16.25
2018-04-19T01:52:30.031Z,16.94
2018-04-19T01:55:00.653Z,16.08
2018-04-19T01:57:31.433Z,17.92
2018-04-19T02:00:02.578Z,18.70
2018-04-19T02:02:33.422Z,19.20
2018-04-19T02:05:04.054Z,17.28
2018-04-19T02:07:34.783Z,18.16
2018-04-19T02:10:05.512Z,19.08
2018-04-19T02:12:37.854Z,19.58
2018-04-19T02:15:07.792Z,19.92
2018-04-19T02:17:38.434Z,18.27
2018-04-19T02:20:09.682Z,18.12
2018-04-19T02:22:40.358Z,17.90
2018-04-19T02:25:11.052Z,17.18
2018-04-19T02:27:41.779Z,15.92
2018-04-19T02:30:12.490Z,16.62
2018-04-19T02:32:43.451Z,15.80
2018-04-19T02:35:14.404Z,15.77
2018-04-19T02:37:45.386Z,16.02
2018-04-19T02:40:16.499Z,16.87
2018-04-19T02:42:47.538Z,16.33
2018-04-19T02:45:18.525Z,16.17
2018-04-19T02:47:49.507Z,17.20
2018-04-19T02:50:20.575Z,17.75
2018-04-19T02:52:51.333Z,18.77
2018-04-19T02:55:22.385Z,19.75
2018-04-19T02:57:53.267Z,16.65
2018-04-19T03:00:24.363Z,16.52
2018-04-19T03:02:55.378Z,16.00
2018-04-19T03:05:26.119Z,15.90
2018-04-19T03:07:56.814Z,16.96
2018-04-19T03:10:27.526Z,15.55
2018-04-19T03:12:58.580Z,16.05
2018-04-19T03:15:29.423Z,15.93
2018-04-19T03:18:00.062Z,16.36
2018-04-19T03:20:30.738Z,18.06
2018-04-19T03:23:01.367Z,19.27
2018-04-19T03:25:32.481Z,19.42
2018-04-19T03:28:02.539Z,17.58
2018-04-19T03:30:34.199Z,17.52
2018-04-19T03:33:04.557Z,16.40
2018-04-19T03:35:35.291Z,16.08
2018-04-19T03:38:06.431Z,16.37
2018-04-19T03:40:37.388Z,16.17
2018-04-19T03:43:08.278Z,16.27
2018-04-19T03:45:39.338Z,15.82
2018-04-19T03:48:10.503Z,15.85
2018-04-19T03:50:41.403Z,13.85
2018-04-19T03:53:12.138Z,14.27
2018-04-19T03:55:43.211Z,12.98
2018-04-19T03:58:14.198Z,13.35
2018-04-19T04:00:45.270Z,14.77
2018-04-19T04:03:16.288Z,14.60
2018-04-19T04:05:47.383Z,15.30
2018-04-19T04:08:19.004Z,15.42
2018-04-19T04:10:48.813Z,15.18
2018-04-19T04:13:19.417Z,14.90
2018-04-19T04:15:56.275Z,14.15
2018-04-19T04:18:36.654Z,16.27
2018-04-19T04:21:19.212Z,14.30
2018-04-19T04:23:54.865Z,16.03
2018-04-19T04:26:24.198Z,15.93
2018-04-19T04:28:53.255Z,18.43
2018-04-19T04:31:22.328Z,17.03
2018-04-19T04:33:51.541Z,17.67
2018-04-19T04:36:20.862Z,21.40
2018-04-19T04:38:50.186Z,20.10
2018-04-19T04:41:19.298Z,22.13
2018-04-19T04:43:48.578Z,20.67
2018-04-19T04:46:21.050Z,19.30
2018-04-19T04:48:50.350Z,20.20
2018-04-19T04:51:19.363Z,23.35
2018-04-19T04:53:48.932Z,23.23
2018-04-19T04:56:17.895Z,24.00
2018-04-19T04:58:46.922Z,22.40
2018-04-19T05:01:15.937Z,21.83
2018-04-19T05:03:45.539Z,23.50
2018-04-19T05:06:15.243Z,22.47
2018-04-19T05:08:44.851Z,26.83
2018-04-19T05:11:13.891Z,28.37
2018-04-19T05:13:43.127Z,29.50
2018-04-19T05:16:13.985Z,29.84
2018-04-19T05:18:43.701Z,30.12
2018-04-19T05:21:14.815Z,29.65
2018-04-19T05:23:46.598Z,29.08
2018-04-19T05:26:17.134Z,26.62
2018-04-19T05:28:47.893Z,28.54
2018-04-19T05:31:17.963Z,31.60
2018-04-19T05:33:48.795Z,29.98
2018-04-19T05:36:19.472Z,30.83
2018-04-19T05:38:50.365Z,29.73
2018-04-19T05:41:21.376Z,29.52
2018-04-19T05:43:52.494Z,30.27
2018-04-19T05:46:23.197Z,31.12
2018-04-19T05:48:55.674Z,30.48
2018-04-19T05:51:25.559Z,29.98
2018-04-19T05:53:55.939Z,32.08
2018-04-19T05:56:26.969Z,32.46
2018-04-19T05:58:56.672Z,30.60
2018-04-19T06:01:27.528Z,32.38
2018-04-19T06:03:58.285Z,31.40
2018-04-19T06:06:29.386Z,31.83
2018-04-19T06:09:00.393Z,31.33
2018-04-19T06:11:29.933Z,30.80
2018-04-19T06:14:01.355Z,32.16
2018-04-19T06:16:32.583Z,30.88
2018-04-19T06:19:03.467Z,31.70
2018-04-19T06:21:34.456Z,30.55
2018-04-19T06:24:04.993Z,30.68
2018-04-19T06:26:35.876Z,30.36
2018-04-19T06:29:06.483Z,30.12
2018-04-19T06:31:37.410Z,32.06
2018-04-19T06:34:08.165Z,32.12
2018-04-19T06:36:38.922Z,31.50
2018-04-19T06:39:09.709Z,32.22
2018-04-19T06:41:40.478Z,32.80
2018-04-19T06:44:11.167Z,30.64
2018-04-19T06:46:41.741Z,29.32
2018-04-19T06:49:12.463Z,30.95
2018-04-19T06:51:43.496Z,29.42
2018-04-19T06:54:14.321Z,29.87
2018-04-19T06:56:45.290Z,28.50
2018-04-19T06:59:16.021Z,28.86
2018-04-19T07:01:46.854Z,27.72
2018-04-19T07:04:17.392Z,26.77
2018-04-19T07:06:48.564Z,27.75
2018-04-19T07:09:19.031Z,23.64
2018-04-19T07:11:51.018Z,22.12
2018-04-19T07:14:20.711Z,19.10
2018-04-19T07:16:51.450Z,20.55
2018-04-19T07:19:22.411Z,18.25
2018-04-19T07:21:55.335Z,17.40
2018-04-19T07:24:24.350Z,19.47
2018-04-19T07:26:55.094Z,17.60
2018-04-19T07:29:25.689Z,16.35
2018-04-19T07:31:56.706Z,13.80
2018-04-19T07:34:26.667Z,14.87
2018-04-19T07:36:56.146Z,16.08
2018-04-19T07:39:27.063Z,12.63
2018-04-19T07:41:57.703Z,10.50
2018-04-19T07:44:28.791Z,11.18
2018-04-19T07:46:59.700Z,12.15
2018-04-19T07:49:31.207Z,11.04
2018-04-19T07:52:02.199Z,11.23
2018-04-19T07:54:33.434Z,10.68
2018-04-19T07:57:04.564Z,10.70
2018-04-19T07:59:35.606Z,10.85
2018-04-19T08:02:06.334Z,10.27
2018-04-19T08:04:37.384Z,10.85
2018-04-19T08:07:07.976Z,9.22
2018-04-19T08:09:38.716Z,9.46
2018-04-19T08:12:09.254Z,8.70
2018-04-19T08:14:40.274Z,10.13
2018-04-19T08:17:11.380Z,9.45
2018-04-19T08:19:41.946Z,9.04
2018-04-19T08:22:12.362Z,9.05
2018-04-19T08:24:43.374Z,8.95
2018-04-19T08:27:14.313Z,9.68
2018-04-19T08:29:45.374Z,10.13
2018-04-19T08:32:16.285Z,8.95
2018-04-19T08:34:47.289Z,9.48
2018-04-19T08:37:18.328Z,9.13
2018-04-19T08:39:49.358Z,9.57
2018-04-19T08:42:20.321Z,10.15
2018-04-19T08:44:51.360Z,10.73
2018-04-19T08:47:22.599Z,10.13
2018-04-19T08:49:53.434Z,9.73
2018-04-19T08:52:24.390Z,10.65
2018-04-19T08:54:58.839Z,10.23
2018-04-19T08:57:28.066Z,9.10
2018-04-19T08:59:57.869Z,8.10
2018-04-19T09:02:28.478Z,8.75
2018-04-19T09:04:59.337Z,8.45
2018-04-19T09:07:30.339Z,8.95
2018-04-19T09:10:01.155Z,8.73
2018-04-19T09:12:31.922Z,7.96
2018-04-19T09:15:02.350Z,7.45
2018-04-19T09:17:32.250Z,5.97
2018-04-19T09:20:02.930Z,7.18
2018-04-19T09:22:33.724Z,8.00
2018-04-19T09:25:05.102Z,7.68
2018-04-19T09:27:36.170Z,8.27
2018-04-19T09:30:07.005Z,6.18
2018-04-19T09:32:38.082Z,6.20
2018-04-19T09:35:09.202Z,8.02
2018-04-19T09:40:30.812Z,5.47
2018-04-19T09:43:00.033Z,5.78
2018-04-19T09:45:29.286Z,6.28
2018-04-19T09:47:58.278Z,5.47
2018-04-19T09:50:27.303Z,4.60
2018-04-19T09:52:56.344Z,5.00
2018-04-19T09:55:25.499Z,4.67
2018-04-19T09:58:06.899Z,5.67
2018-04-19T10:00:41.638Z,5.60
2018-04-19T10:03:15.931Z,4.00
2018-04-19T10:05:48.200Z,3.95
2018-04-19T10:08:17.272Z,4.70
2018-04-19T10:10:46.238Z,5.20
2018-04-19T10:13:15.266Z,4.87
2018-04-19T10:15:44.202Z,5.63
2018-04-19T10:18:13.166Z,4.93
2018-04-19T10:20:42.242Z,5.07
2018-04-19T10:23:11.173Z,4.93
2018-04-19T10:25:40.199Z,5.37
2018-04-19T10:28:09.301Z,5.77
2018-04-19T10:30:38.371Z,5.90
2018-04-19T10:33:07.407Z,5.27
2018-04-19T10:35:36.431Z,4.67
2018-04-19T10:38:05.368Z,4.43
2018-04-19T10:40:34.465Z,5.40
2018-04-19T10:43:03.593Z,4.27
2018-04-19T10:45:33.597Z,4.78
2018-04-19T10:48:04.407Z,4.95
2018-04-19T10:50:35.322Z,5.03
2018-04-19T10:53:06.400Z,3.85
2018-04-19T10:55:38.302Z,4.25
2018-04-19T10:58:07.922Z,4.87
2018-04-19T11:00:40.276Z,4.30
2018-04-19T11:03:09.825Z,4.40
2018-04-19T11:05:40.469Z,4.00
2018-04-19T11:08:11.289Z,4.37
2018-04-19T11:10:42.343Z,4.65
2018-04-19T11:13:13.314Z,3.83
2018-04-19T11:15:44.357Z,4.22
2018-04-19T11:18:15.375Z,3.53
2018-04-19T11:20:46.387Z,3.60
2018-04-19T11:23:17.218Z,3.30
2018-04-19T11:25:48.239Z,3.83
2018-04-19T11:28:19.194Z,3.90
2018-04-19T11:30:50.223Z,3.45
2018-04-19T11:33:21.170Z,4.10
2018-04-19T11:35:52.233Z,4.03
2018-04-19T11:38:22.851Z,5.22
2018-04-19T11:40:53.076Z,5.27
2018-04-19T11:43:24.064Z,5.85
2018-04-19T11:45:55.099Z,4.70
2018-04-19T11:48:26.046Z,4.12
2018-04-19T11:50:57.054Z,3.62
2018-04-19T11:53:28.089Z,3.83
2018-04-19T11:55:59.086Z,4.00
2018-04-19T11:58:30.077Z,3.28
2018-04-19T12:01:01.166Z,3.40
2018-04-19T12:03:32.343Z,3.12
2018-04-19T12:06:02.165Z,4.05
2018-04-19T12:08:32.874Z,3.85
2018-04-19T12:11:03.697Z,2.40
2018-04-19T12:13:34.831Z,3.65
2018-04-19T12:16:05.792Z,4.40
2018-04-19T12:18:36.970Z,3.47
2018-04-19T12:21:08.195Z,2.97
2018-04-19T12:23:38.636Z,3.70
2018-04-19T12:26:09.512Z,3.70
2018-04-19T12:28:40.538Z,3.83
2018-04-19T12:31:11.224Z,3.60
2018-04-19T12:33:42.690Z,3.55
2018-04-19T12:36:14.302Z,3.50
2018-04-19T12:38:45.341Z,3.70
2018-04-19T12:41:16.384Z,3.25
2018-04-19T12:43:47.351Z,3.35
2018-04-19T12:46:18.426Z,3.05
2018-04-19T12:48:49.370Z,3.33
2018-04-19T12:51:20.106Z,3.66
2018-04-19T12:53:50.766Z,3.04
2018-04-19T12:56:21.669Z,3.40
2018-04-19T12:58:52.422Z,2.55
2018-04-19T13:01:23.270Z,2.00
2018-04-19T13:03:55.272Z,3.24
2018-04-19T13:06:25.084Z,2.80
2018-04-19T13:08:55.733Z,3.42
2018-04-19T13:11:26.318Z,3.42
2018-04-19T13:13:56.793Z,3.00
2018-04-19T13:16:27.397Z,2.62
2018-04-19T13:18:58.435Z,2.78
2018-04-19T13:21:29.495Z,2.70
2018-04-19T13:24:00.286Z,3.03
2018-04-19T13:26:31.329Z,2.62
2018-04-19T13:29:02.271Z,2.55
2018-04-19T13:31:32.907Z,2.70
2018-04-19T13:34:03.431Z,3.45
2018-04-19T13:36:34.362Z,3.70
2018-04-19T13:39:04.603Z,3.60
2018-04-19T13:41:36.406Z,3.92
2018-04-19T13:44:07.182Z,3.32
2018-04-19T13:46:38.023Z,5.48
2018-04-19T13:49:08.627Z,2.76
2018-04-19T13:51:39.378Z,2.53
2018-04-19T13:54:10.110Z,2.55
2018-04-19T13:56:41.018Z,3.60
2018-04-19T13:59:12.117Z,3.60
2018-04-19T14:01:42.872Z,3.45
2018-04-19T14:04:13.943Z,3.10
2018-04-19T14:06:45.107Z,2.62
2018-04-19T14:09:16.066Z,2.40
2018-04-19T14:11:47.706Z,2.60
2018-04-19T14:14:18.390Z,2.20
2018-04-19T14:16:48.901Z,2.22
2018-04-19T14:19:19.525Z,2.40
2018-04-19T14:21:50.706Z,2.40
2018-04-19T14:24:21.414Z,2.67
2018-04-19T14:26:52.442Z,2.78
2018-04-19T14:29:23.575Z,2.78
2018-04-19T14:31:54.250Z,2.62
2018-04-19T14:34:24.868Z,2.78
2018-04-19T14:36:55.584Z,2.33
2018-04-19T14:39:26.372Z,2.42
2018-04-19T14:41:57.290Z,2.50
2018-04-19T14:44:28.320Z,3.22
2018-04-19T14:46:59.351Z,3.20
2018-04-19T14:49:31.650Z,2.92
2018-04-19T14:52:01.639Z,2.67
2018-04-19T14:54:32.503Z,2.03
2018-04-19T14:57:03.451Z,2.12
2018-04-19T14:59:34.085Z,1.80
2018-04-19T15:02:04.913Z,1.90
2018-04-19T15:04:35.374Z,2.00
2018-04-19T15:07:06.483Z,1.67
2018-04-19T15:09:36.763Z,1.86
2018-04-19T15:12:07.543Z,2.33
2018-04-19T15:14:39.233Z,1.86
2018-04-19T15:17:09.899Z,1.90
2018-04-19T15:19:40.658Z,2.03
2018-04-19T15:22:11.787Z,1.67
2018-04-19T15:24:42.558Z,1.65
2018-04-19T15:27:12.450Z,2.60
2018-04-19T15:29:43.005Z,2.00
2018-04-19T15:32:13.793Z,2.05
2018-04-19T15:34:44.635Z,1.73
2018-04-19T15:37:15.206Z,1.30
2018-04-19T15:39:47.576Z,1.60
2018-04-19T15:42:17.983Z,1.50
2018-04-19T15:44:48.933Z,1.65
2018-04-19T15:47:19.859Z,2.33
2018-04-19T15:49:50.995Z,2.33
2018-04-19T15:52:22.226Z,1.90
2018-04-19T15:54:53.072Z,1.70
2018-04-19T15:57:24.110Z,2.33
2018-04-19T15:59:55.017Z,2.00
2018-04-19T16:02:26.160Z,1.92
2018-04-19T16:04:56.773Z,1.67
2018-04-19T16:07:27.727Z,1.60
2018-04-19T16:09:58.660Z,2.20
2018-04-19T16:12:29.792Z,1.70
2018-04-19T16:15:00.621Z,1.92
2018-04-19T16:20:56.568Z,1.63
2018-04-19T16:23:25.601Z,1.40
2018-04-19T16:25:54.536Z,1.67
2018-04-19T16:28:23.519Z,1.40
2018-04-19T16:30:52.623Z,1.60
2018-04-19T16:33:21.605Z,1.47
2018-04-19T16:35:50.566Z,1.33
2018-04-19T16:38:19.685Z,1.63
2018-04-19T16:40:48.639Z,1.80
2018-04-19T16:43:17.658Z,1.57
2018-04-19T16:45:46.695Z,1.50
2018-04-19T16:48:15.655Z,1.57
2018-04-19T16:50:44.656Z,1.70
2018-04-19T16:53:13.707Z,1.90
2018-04-19T16:55:42.699Z,2.37
2018-04-19T16:58:11.598Z,2.20
2018-04-19T17:00:40.503Z,2.27
2018-04-19T17:06:05.548Z,1.80
2018-04-19T17:08:34.640Z,2.23
2018-04-19T17:11:03.571Z,2.33
2018-04-19T17:13:32.609Z,3.63
2018-04-19T17:16:01.524Z,5.40
2018-04-19T17:18:30.461Z,4.10
2018-04-19T17:20:59.443Z,3.83
2018-04-19T17:23:28.358Z,3.40
2018-04-19T17:25:57.317Z,2.63
2018-04-19T17:28:26.319Z,3.03
2018-04-19T17:30:55.283Z,3.33
2018-04-19T17:33:45.890Z,3.40
2018-04-19T17:36:15.166Z,3.00
2018-04-19T17:38:44.294Z,2.93
2018-04-19T17:41:13.258Z,3.30
2018-04-19T17:43:43.778Z,3.07
2018-04-19T17:46:13.209Z,3.40
2018-04-19T17:48:42.163Z,3.50
2018-04-19T17:51:11.188Z,4.57
2018-04-19T17:53:40.141Z,5.00
2018-04-19T17:56:09.166Z,5.10
2018-04-19T17:58:38.517Z,5.10
2018-04-19T18:01:07.495Z,5.90
2018-04-19T18:03:36.439Z,5.23
2018-04-19T18:06:05.446Z,3.93
2018-04-19T18:08:34.380Z,4.30
2018-04-19T18:11:03.384Z,4.57
2018-04-19T18:13:32.424Z,5.03
2018-04-19T18:16:01.449Z,5.37
2018-04-19T18:18:30.906Z,5.18
2018-04-19T18:23:51.402Z,6.70
2018-04-19T18:26:20.357Z,7.53
2018-04-19T18:28:49.338Z,8.57
2018-04-19T18:31:18.359Z,10.87
2018-04-19T18:33:47.313Z,9.10
2018-04-19T18:36:16.265Z,12.90
2018-04-19T18:38:45.338Z,47.07
2018-04-19T18:41:14.307Z,43.20
2018-04-19T18:43:43.255Z,52.57
2018-04-19T18:46:34.250Z,62.88
2018-04-19T18:49:03.443Z,152.80
2018-04-19T18:51:32.450Z,124.77
2018-04-19T18:54:01.462Z,121.30
2018-04-19T18:56:30.495Z,112.40
2018-04-19T18:58:59.460Z,76.10
2018-04-19T19:01:28.435Z,69.97
2018-04-19T19:03:57.462Z,36.57
2018-04-19T19:06:26.560Z,38.37
2018-04-19T19:09:17.891Z,31.97
2018-04-19T19:11:47.275Z,30.37
2018-04-19T19:14:16.291Z,19.20
2018-04-19T19:16:45.490Z,18.17
2018-04-19T19:19:25.645Z,13.13
2018-04-19T19:21:54.626Z,18.20
2018-04-19T19:24:23.695Z,14.70
2018-04-19T19:26:52.702Z,14.90
2018-04-19T19:29:21.669Z,16.47
2018-04-19T19:31:50.630Z,12.03
2018-04-19T19:34:19.659Z,11.60
2018-04-19T19:36:48.669Z,10.50
2018-04-19T19:39:17.620Z,10.10
2018-04-19T19:41:46.477Z,6.63
2018-04-19T19:44:15.448Z,6.07
2018-04-19T19:46:44.641Z,7.00
2018-04-19T19:49:13.640Z,7.67
2018-04-19T19:51:42.582Z,6.93
2018-04-19T19:54:11.591Z,7.03
2018-04-19T19:56:40.631Z,5.97
2018-04-19T19:59:09.874Z,6.03
2018-04-19T20:01:38.721Z,6.25
2018-04-19T20:04:07.730Z,5.30
2018-04-19T20:06:37.258Z,5.20
2018-04-19T20:09:05.879Z,5.23
2018-04-19T20:11:35.561Z,5.18
2018-04-19T20:14:04.610Z,5.50
2018-04-19T20:16:33.568Z,4.90
2018-04-19T20:19:02.618Z,4.83
2018-04-19T20:21:31.687Z,5.35
2018-04-19T20:24:02.486Z,5.45
2018-04-19T20:26:33.475Z,4.45
2018-04-19T20:29:04.405Z,5.10
2018-04-19T20:31:35.106Z,5.12
2018-04-19T20:34:05.853Z,5.26
2018-04-19T20:36:36.380Z,5.47
2018-04-19T20:39:08.037Z,5.18
2018-04-19T20:41:37.777Z,5.45
2018-04-19T20:44:08.443Z,5.18
2018-04-19T20:46:39.455Z,4.85
2018-04-19T20:49:10.894Z,5.00
2018-04-19T20:51:40.615Z,5.28
2018-04-19T20:54:11.365Z,4.97
2018-04-19T20:56:42.282Z,5.25
2018-04-19T20:59:13.304Z,5.10
2018-04-19T21:01:44.258Z,4.35
2018-04-19T21:04:14.898Z,4.14
2018-04-19T21:06:45.194Z,4.90
2018-04-19T21:09:16.578Z,5.37
2018-04-19T21:11:47.294Z,5.12
2018-04-19T21:14:18.376Z,5.03
2018-04-19T21:16:48.774Z,5.30
2018-04-19T21:19:19.255Z,4.93
2018-04-19T21:21:50.197Z,5.20
2018-04-19T21:24:21.249Z,5.70
2018-04-19T21:26:52.199Z,5.70
2018-04-19T21:29:22.842Z,5.36
2018-04-19T21:31:52.748Z,6.07
2018-04-19T21:34:24.306Z,5.66
2018-04-19T21:36:55.276Z,5.90
2018-04-19T21:39:26.356Z,5.40
2018-04-19T21:41:57.345Z,6.03
2018-04-19T21:44:28.350Z,5.90
2018-04-19T21:46:59.322Z,5.70
2018-04-19T21:49:30.350Z,6.82
2018-04-19T21:52:01.325Z,6.97
2018-04-19T21:54:32.434Z,6.37
2018-04-19T21:57:03.391Z,6.35
2018-04-19T21:59:34.377Z,7.07
2018-04-19T22:02:05.238Z,7.65
2018-04-19T22:04:36.285Z,7.22
2018-04-19T22:07:07.267Z,7.25
2018-04-19T22:09:37.928Z,7.66
2018-04-19T22:12:08.646Z,6.88
2018-04-19T22:14:39.509Z,7.25
2018-04-19T22:17:09.980Z,7.07
2018-04-19T22:19:41.118Z,6.32
2018-04-19T22:22:11.747Z,6.64
2018-04-19T22:24:42.468Z,6.60
2018-04-19T22:27:13.330Z,7.20
2018-04-19T22:29:44.397Z,6.53
2018-04-19T22:32:15.302Z,7.20
2018-04-19T22:34:46.330Z,6.55
2018-04-19T22:37:17.298Z,6.85
2018-04-19T22:39:48.355Z,7.05
2018-04-19T22:42:18.901Z,7.50
2018-04-19T22:44:49.265Z,6.47
2018-04-19T22:47:20.243Z,5.75
2018-04-19T22:49:51.267Z,5.50
2018-04-19T22:52:22.235Z,6.55
2018-04-19T22:54:53.262Z,6.57
2018-04-19T22:57:24.298Z,6.10
2018-04-19T22:59:55.367Z,6.93
2018-04-19T23:02:26.325Z,6.75
2018-04-19T23:04:57.282Z,7.15
2018-04-19T23:07:28.270Z,8.13
2018-04-19T23:09:59.290Z,8.73
2018-04-19T23:12:30.106Z,10.60
2018-04-19T23:15:00.793Z,11.36
2018-04-19T23:17:31.357Z,11.98
2018-04-19T23:20:02.422Z,12.57
2018-04-19T23:22:35.545Z,13.72
2018-04-19T23:25:04.733Z,14.35
2018-04-19T23:27:34.614Z,14.05
2018-04-19T23:30:05.136Z,14.75
2018-04-19T23:32:36.232Z,14.30
2018-04-19T23:35:07.027Z,17.24
2018-04-19T23:37:37.680Z,18.16
2018-04-19T23:40:08.398Z,19.50
2018-04-19T23:42:39.389Z,18.65
2018-04-19T23:45:10.289Z,18.92
2018-04-19T23:47:41.269Z,18.60
2018-04-19T23:50:12.327Z,19.35
2018-04-19T23:52:43.236Z,18.00
2018-04-19T23:55:18.686Z,16.92
2018-04-19T23:57:47.734Z,17.87
